sensor_id;sensor_type;location;lat;lon;timestamp;P1;durP1;ratioP1;P2;durP2;ratioP2
19863;SDS011;10094;48.820;9.226;2023-03-03T00:02:59;48.35;;;27.92;;
19863;SDS011;10094;48.820;9.226;2023-03-03T00:09:45;47.75;;;29.35;;
19863;SDS011;10094;48.820;9.226;2023-03-03T00:16:29;53.13;;;28.40;;
19863;SDS011;10094;48.820;9.226;2023-03-03T00:23:19;50.53;;;29.73;;
19863;SDS011;10094;48.820;9.226;2023-03-03T00:30:27;47.22;;;28.15;;
19863;SDS011;10094;48.820;9.226;2023-03-03T00:44:47;56.42;;;28.38;;
19863;SDS011;10094;48.820;9.226;2023-03-03T00:58:11;49.03;;;26.05;;
19863;SDS011;10094;48.820;9.226;2023-03-03T01:04:58;47.20;;;27.65;;
19863;SDS011;10094;48.820;9.226;2023-03-03T01:11:40;48.95;;;27.52;;
19863;SDS011;10094;48.820;9.226;2023-03-03T01:18:23;49.50;;;26.83;;
19863;SDS011;10094;48.820;9.226;2023-03-03T01:25:05;51.88;;;28.77;;
19863;SDS011;10094;48.820;9.226;2023-03-03T01:31:48;55.55;;;28.80;;
19863;SDS011;10094;48.820;9.226;2023-03-03T01:38:31;50.30;;;27.50;;
19863;SDS011;10094;48.820;9.226;2023-03-03T01:45:21;47.60;;;28.77;;
19863;SDS011;10094;48.820;9.226;2023-03-03T01:52:11;51.45;;;27.45;;
19863;SDS011;10094;48.820;9.226;2023-03-03T01:58:58;48.72;;;27.73;;
19863;SDS011;10094;48.820;9.226;2023-03-03T02:05:48;57.72;;;29.45;;
19863;SDS011;10094;48.820;9.226;2023-03-03T02:12:35;57.08;;;30.23;;
19863;SDS011;10094;48.820;9.226;2023-03-03T02:19:23;53.90;;;29.52;;
19863;SDS011;10094;48.820;9.226;2023-03-03T02:26:11;64.60;;;31.10;;
19863;SDS011;10094;48.820;9.226;2023-03-03T02:32:56;61.67;;;31.67;;
19863;SDS011;10094;48.820;9.226;2023-03-03T02:39:38;58.78;;;31.35;;
19863;SDS011;10094;48.820;9.226;2023-03-03T02:46:21;60.33;;;33.13;;
19863;SDS011;10094;48.820;9.226;2023-03-03T02:53:03;53.75;;;29.75;;
19863;SDS011;10094;48.820;9.226;2023-03-03T02:59:46;52.92;;;28.95;;
19863;SDS011;10094;48.820;9.226;2023-03-03T03:06:31;51.80;;;29.38;;
19863;SDS011;10094;48.820;9.226;2023-03-03T03:13:14;49.65;;;29.20;;
19863;SDS011;10094;48.820;9.226;2023-03-03T03:19:58;52.58;;;29.60;;
19863;SDS011;10094;48.820;9.226;2023-03-03T03:26:41;55.33;;;29.38;;
19863;SDS011;10094;48.820;9.226;2023-03-03T03:33:24;51.78;;;30.92;;
19863;SDS011;10094;48.820;9.226;2023-03-03T03:40:10;55.33;;;30.48;;
19863;SDS011;10094;48.820;9.226;2023-03-03T03:46:53;51.00;;;29.38;;
19863;SDS011;10094;48.820;9.226;2023-03-03T03:53:35;52.08;;;29.05;;
19863;SDS011;10094;48.820;9.226;2023-03-03T04:00:18;50.65;;;29.52;;
19863;SDS011;10094;48.820;9.226;2023-03-03T04:07:07;54.05;;;29.23;;
19863;SDS011;10094;48.820;9.226;2023-03-03T04:13:52;50.80;;;29.58;;
19863;SDS011;10094;48.820;9.226;2023-03-03T04:20:35;46.53;;;27.92;;
19863;SDS011;10094;48.820;9.226;2023-03-03T04:27:18;45.05;;;27.25;;
19863;SDS011;10094;48.820;9.226;2023-03-03T04:34:00;45.83;;;26.60;;
19863;SDS011;10094;48.820;9.226;2023-03-03T04:40:43;47.10;;;27.58;;
19863;SDS011;10094;48.820;9.226;2023-03-03T04:47:27;46.67;;;26.73;;
19863;SDS011;10094;48.820;9.226;2023-03-03T04:54:09;51.00;;;28.85;;
19863;SDS011;10094;48.820;9.226;2023-03-03T05:00:53;51.25;;;28.27;;
19863;SDS011;10094;48.820;9.226;2023-03-03T05:07:38;48.97;;;27.88;;
19863;SDS011;10094;48.820;9.226;2023-03-03T05:14:21;55.88;;;29.13;;
19863;SDS011;10094;48.820;9.226;2023-03-03T05:21:04;50.80;;;29.13;;
19863;SDS011;10094;48.820;9.226;2023-03-03T05:27:46;52.55;;;28.48;;
19863;SDS011;10094;48.820;9.226;2023-03-03T05:34:29;51.35;;;27.08;;
19863;SDS011;10094;48.820;9.226;2023-03-03T05:41:11;49.85;;;29.83;;
19863;SDS011;10094;48.820;9.226;2023-03-03T05:47:53;51.28;;;28.95;;
19863;SDS011;10094;48.820;9.226;2023-03-03T05:54:36;48.30;;;28.58;;
19863;SDS011;10094;48.820;9.226;2023-03-03T06:01:18;52.58;;;30.23;;
19863;SDS011;10094;48.820;9.226;2023-03-03T06:08:01;47.80;;;27.73;;
19863;SDS011;10094;48.820;9.226;2023-03-03T06:14:44;52.13;;;30.17;;
19863;SDS011;10094;48.820;9.226;2023-03-03T06:21:26;50.90;;;29.30;;
19863;SDS011;10094;48.820;9.226;2023-03-03T06:28:08;53.00;;;30.90;;
19863;SDS011;10094;48.820;9.226;2023-03-03T06:34:51;54.47;;;31.90;;
19863;SDS011;10094;48.820;9.226;2023-03-03T06:41:33;59.17;;;32.63;;
19863;SDS011;10094;48.820;9.226;2023-03-03T06:48:15;52.35;;;31.65;;
19863;SDS011;10094;48.820;9.226;2023-03-03T06:54:58;55.90;;;32.05;;
19863;SDS011;10094;48.820;9.226;2023-03-03T07:01:43;51.92;;;29.73;;
19863;SDS011;10094;48.820;9.226;2023-03-03T07:08:29;50.90;;;27.70;;
19863;SDS011;10094;48.820;9.226;2023-03-03T07:21:58;51.75;;;30.77;;
19863;SDS011;10094;48.820;9.226;2023-03-03T07:36:05;43.63;;;26.55;;
19863;SDS011;10094;48.820;9.226;2023-03-03T07:50:13;45.22;;;27.48;;
19863;SDS011;10094;48.820;9.226;2023-03-03T08:04:09;44.72;;;25.63;;
19863;SDS011;10094;48.820;9.226;2023-03-03T08:10:58;42.28;;;23.75;;
19863;SDS011;10094;48.820;9.226;2023-03-03T08:17:41;40.08;;;25.60;;
19863;SDS011;10094;48.820;9.226;2023-03-03T08:24:24;41.97;;;25.02;;
19863;SDS011;10094;48.820;9.226;2023-03-03T08:31:07;36.33;;;25.70;;
19863;SDS011;10094;48.820;9.226;2023-03-03T08:38:03;36.03;;;27.33;;
19863;SDS011;10094;48.820;9.226;2023-03-03T08:44:46;31.02;;;26.02;;
19863;SDS011;10094;48.820;9.226;2023-03-03T08:51:29;31.38;;;25.15;;
19863;SDS011;10094;48.820;9.226;2023-03-03T08:58:11;31.25;;;25.55;;
19863;SDS011;10094;48.820;9.226;2023-03-03T09:04:54;31.58;;;25.50;;
19863;SDS011;10094;48.820;9.226;2023-03-03T09:11:36;34.10;;;26.55;;
19863;SDS011;10094;48.820;9.226;2023-03-03T09:18:25;30.95;;;24.88;;
19863;SDS011;10094;48.820;9.226;2023-03-03T09:25:21;32.53;;;24.90;;
19863;SDS011;10094;48.820;9.226;2023-03-03T09:32:30;34.35;;;24.85;;
19863;SDS011;10094;48.820;9.226;2023-03-03T09:46:18;32.13;;;25.02;;
19863;SDS011;10094;48.820;9.226;2023-03-03T09:53:34;33.72;;;24.02;;
19863;SDS011;10094;48.820;9.226;2023-03-03T10:00:28;31.08;;;23.63;;
19863;SDS011;10094;48.820;9.226;2023-03-03T10:15:15;29.42;;;23.98;;
19863;SDS011;10094;48.820;9.226;2023-03-03T10:21:50;31.60;;;24.13;;
19863;SDS011;10094;48.820;9.226;2023-03-03T10:28:50;34.72;;;25.63;;
19863;SDS011;10094;48.820;9.226;2023-03-03T10:50:20;33.88;;;25.73;;
19863;SDS011;10094;48.820;9.226;2023-03-03T10:57:16;35.60;;;26.23;;
19863;SDS011;10094;48.820;9.226;2023-03-03T11:04:34;30.40;;;23.85;;
19863;SDS011;10094;48.820;9.226;2023-03-03T11:25:45;35.05;;;23.67;;
19863;SDS011;10094;48.820;9.226;2023-03-03T11:39:24;30.38;;;22.45;;
19863;SDS011;10094;48.820;9.226;2023-03-03T11:46:15;31.98;;;23.10;;
19863;SDS011;10094;48.820;9.226;2023-03-03T12:14:15;30.27;;;20.80;;
19863;SDS011;10094;48.820;9.226;2023-03-03T12:28:39;26.58;;;20.00;;
19863;SDS011;10094;48.820;9.226;2023-03-03T12:35:34;33.58;;;21.20;;
19863;SDS011;10094;48.820;9.226;2023-03-03T12:49:54;29.38;;;20.70;;
19863;SDS011;10094;48.820;9.226;2023-03-03T12:56:54;29.52;;;20.10;;
19863;SDS011;10094;48.820;9.226;2023-03-03T13:03:43;33.08;;;20.23;;
19863;SDS011;10094;48.820;9.226;2023-03-03T13:10:53;25.52;;;19.88;;
19863;SDS011;10094;48.820;9.226;2023-03-03T13:17:38;30.88;;;19.90;;
19863;SDS011;10094;48.820;9.226;2023-03-03T13:31:14;28.52;;;19.95;;
19863;SDS011;10094;48.820;9.226;2023-03-03T13:38:02;32.50;;;20.35;;
19863;SDS011;10094;48.820;9.226;2023-03-03T13:44:47;32.85;;;20.10;;
19863;SDS011;10094;48.820;9.226;2023-03-03T14:12:19;28.67;;;20.55;;
19863;SDS011;10094;48.820;9.226;2023-03-03T14:19:25;31.58;;;22.35;;
19863;SDS011;10094;48.820;9.226;2023-03-03T14:26:13;27.83;;;20.58;;
19863;SDS011;10094;48.820;9.226;2023-03-03T14:39:59;29.95;;;21.88;;
19863;SDS011;10094;48.820;9.226;2023-03-03T14:47:00;30.50;;;21.67;;
19863;SDS011;10094;48.820;9.226;2023-03-03T14:53:55;31.98;;;22.80;;
19863;SDS011;10094;48.820;9.226;2023-03-03T15:00:38;33.20;;;23.08;;
19863;SDS011;10094;48.820;9.226;2023-03-03T15:07:30;31.30;;;22.23;;
19863;SDS011;10094;48.820;9.226;2023-03-03T15:14:18;33.22;;;22.92;;
19863;SDS011;10094;48.820;9.226;2023-03-03T15:21:04;29.20;;;20.13;;
19863;SDS011;10094;48.820;9.226;2023-03-03T15:35:09;31.52;;;22.13;;
19863;SDS011;10094;48.820;9.226;2023-03-03T15:42:20;30.92;;;22.15;;
19863;SDS011;10094;48.820;9.226;2023-03-03T16:10:03;34.92;;;22.88;;
19863;SDS011;10094;48.820;9.226;2023-03-03T16:23:59;29.27;;;21.13;;
19863;SDS011;10094;48.820;9.226;2023-03-03T16:31:01;32.53;;;21.65;;
19863;SDS011;10094;48.820;9.226;2023-03-03T16:44:51;33.55;;;21.08;;
19863;SDS011;10094;48.820;9.226;2023-03-03T16:51:56;33.40;;;21.42;;
19863;SDS011;10094;48.820;9.226;2023-03-03T17:55:11;40.97;;;26.75;;
19863;SDS011;10094;48.820;9.226;2023-03-03T18:08:55;40.60;;;24.35;;
19863;SDS011;10094;48.820;9.226;2023-03-03T18:22:53;41.17;;;26.23;;
19863;SDS011;10094;48.820;9.226;2023-03-03T18:29:35;44.72;;;26.83;;
19863;SDS011;10094;48.820;9.226;2023-03-03T18:50:32;41.38;;;25.25;;
19863;SDS011;10094;48.820;9.226;2023-03-03T18:57:17;39.60;;;24.92;;
19863;SDS011;10094;48.820;9.226;2023-03-03T19:04:02;44.03;;;25.77;;
19863;SDS011;10094;48.820;9.226;2023-03-03T19:10:59;46.70;;;26.02;;
19863;SDS011;10094;48.820;9.226;2023-03-03T19:17:43;40.63;;;26.00;;
19863;SDS011;10094;48.820;9.226;2023-03-03T19:24:31;39.38;;;24.63;;
19863;SDS011;10094;48.820;9.226;2023-03-03T19:31:22;40.03;;;25.42;;
19863;SDS011;10094;48.820;9.226;2023-03-03T19:58:52;38.85;;;25.15;;
19863;SDS011;10094;48.820;9.226;2023-03-03T20:20:21;43.40;;;26.65;;
19863;SDS011;10094;48.820;9.226;2023-03-03T20:27:13;44.80;;;26.23;;
19863;SDS011;10094;48.820;9.226;2023-03-03T21:09:27;45.25;;;26.80;;
19863;SDS011;10094;48.820;9.226;2023-03-03T21:23:02;44.05;;;26.90;;
19863;SDS011;10094;48.820;9.226;2023-03-03T21:29:44;46.80;;;28.23;;
19863;SDS011;10094;48.820;9.226;2023-03-03T21:36:45;47.72;;;27.63;;
19863;SDS011;10094;48.820;9.226;2023-03-03T21:43:36;59.40;;;29.20;;
19863;SDS011;10094;48.820;9.226;2023-03-03T21:50:23;54.00;;;28.85;;
19863;SDS011;10094;48.820;9.226;2023-03-03T21:57:07;47.35;;;28.17;;
19863;SDS011;10094;48.820;9.226;2023-03-03T22:03:49;49.75;;;28.33;;
19863;SDS011;10094;48.820;9.226;2023-03-03T22:10:31;49.80;;;26.50;;
19863;SDS011;10094;48.820;9.226;2023-03-03T22:17:14;45.53;;;27.70;;
19863;SDS011;10094;48.820;9.226;2023-03-03T22:23:57;47.50;;;26.67;;
19863;SDS011;10094;48.820;9.226;2023-03-03T22:30:39;43.35;;;25.92;;
19863;SDS011;10094;48.820;9.226;2023-03-03T22:37:21;41.97;;;24.13;;
19863;SDS011;10094;48.820;9.226;2023-03-03T22:44:04;42.15;;;24.27;;
19863;SDS011;10094;48.820;9.226;2023-03-03T22:50:46;44.90;;;24.77;;
19863;SDS011;10094;48.820;9.226;2023-03-03T22:57:28;41.85;;;23.50;;
19863;SDS011;10094;48.820;9.226;2023-03-03T23:04:11;44.30;;;25.40;;
19863;SDS011;10094;48.820;9.226;2023-03-03T23:10:54;41.05;;;23.58;;
19863;SDS011;10094;48.820;9.226;2023-03-03T23:17:36;46.72;;;23.65;;
19863;SDS011;10094;48.820;9.226;2023-03-03T23:24:18;44.78;;;23.92;;
19863;SDS011;10094;48.820;9.226;2023-03-03T23:31:01;47.45;;;25.30;;
19863;SDS011;10094;48.820;9.226;2023-03-03T23:37:43;40.78;;;23.77;;
19863;SDS011;10094;48.820;9.226;2023-03-03T23:44:26;43.85;;;24.98;;
19863;SDS011;10094;48.820;9.226;2023-03-03T23:51:08;46.28;;;24.35;;
19863;SDS011;10094;48.820;9.226;2023-03-03T23:57:51;45.10;;;23.73;;
